Time;durP1;ratioP1;P1;durP2;ratioP2;P2;SDS_P1;SDS_P2;PMS_P1;PMS_P2;Temp;Humidity;BMP_temperature;BMP_pressure;BME280_temperature;BME280_humidity;BME280_pressure;Samples;Min_cycle;Max_cycle;Signal;HPM_P1;HPM_P2
2023/07/07 00:02:23;;;;;;;9.32;5.63;;;;;;;13.57;100.00;94169.88;5048421;28;20393;-63
2023/07/07 00:04:50;;;;;;;9.40;5.47;;;;;;;13.50;100.00;94168.06;5031358;28;20470;-60
2023/07/07 00:07:18;;;;;;;8.70;5.18;;;;;;;13.51;100.00;94174.34;5040044;28;20109;-60
2023/07/07 00:09:44;;;;;;;9.25;5.18;;;;;;;13.48;100.00;94176.00;5048496;28;20049;-60
2023/07/07 00:12:13;;;;;;;9.30;5.40;;;;;;;13.43;100.00;94179.25;5049311;28;20041;-60
2023/07/07 00:14:40;;;;;;;8.70;5.03;;;;;;;13.37;100.00;94183.72;5048441;28;20075;-60
2023/07/07 00:17:06;;;;;;;195.25;115.80;;;;;;;13.27;100.00;94182.72;5048957;28;20051;-62
2023/07/07 00:19:33;;;;;;;43.78;25.05;;;;;;;13.28;100.00;94189.00;5048513;28;20045;-59
2023/07/07 00:22:01;;;;;;;20.08;11.63;;;;;;;13.25;100.00;94185.13;5049002;28;20045;-60
2023/07/07 00:24:28;;;;;;;12.67;7.03;;;;;;;13.24;100.00;94188.28;5048791;28;20649;-60
2023/07/07 00:26:55;;;;;;;9.68;5.80;;;;;;;13.21;100.00;94191.91;5048501;28;20064;-60
2023/07/07 00:29:22;;;;;;;8.15;4.88;;;;;;;13.18;100.00;94190.78;5048868;28;20059;-62
2023/07/07 00:31:49;;;;;;;10.02;5.20;;;;;;;13.12;100.00;94190.50;5048477;28;20502;-61
2023/07/07 00:34:15;;;;;;;8.50;4.80;;;;;;;13.08;100.00;94195.31;5048772;28;20037;-62
2023/07/07 00:36:42;;;;;;;8.60;4.80;;;;;;;13.03;100.00;94195.03;5048219;28;20417;-61
2023/07/07 00:39:10;;;;;;;8.57;5.10;;;;;;;12.95;100.00;94186.91;5048723;28;20119;-60
2023/07/07 00:41:37;;;;;;;7.97;4.80;;;;;;;12.89;100.00;94196.09;5047726;28;20045;-60
2023/07/07 00:44:11;;;;;;;8.70;5.03;;;;;;;12.88;100.00;94192.56;5048576;28;20041;-61
2023/07/07 00:46:39;;;;;;;10.00;5.10;;;;;;;12.81;100.00;94192.69;5047776;28;20074;-61
2023/07/07 00:49:14;;;;;;;9.70;5.30;;;;;;;12.80;100.00;94193.91;5048722;28;20494;-60
2023/07/07 00:51:50;;;;;;;35.80;20.23;;;;;;;12.81;100.00;94194.69;5047790;28;20456;-60
2023/07/07 00:54:23;;;;;;;28.70;17.00;;;;;;;12.75;100.00;94192.41;5048567;28;20055;-60
2023/07/07 00:56:52;;;;;;;14.20;8.15;;;;;;;12.71;100.00;94197.19;5047780;28;20209;-59
2023/07/07 00:59:29;;;;;;;9.02;5.40;;;;;;;12.66;100.00;94197.72;5027361;28;20045;-60
2023/07/07 01:02:01;;;;;;;9.23;5.33;;;;;;;12.59;100.00;94193.09;5043634;28;20041;-60
2023/07/07 01:04:29;;;;;;;9.90;5.05;;;;;;;12.52;100.00;94200.72;5032823;28;20038;-60
2023/07/07 01:07:02;;;;;;;9.15;5.43;;;;;;;12.38;100.00;94194.28;5035861;28;20048;-60
2023/07/07 01:09:29;;;;;;;7.85;4.95;;;;;;;12.37;100.00;94198.22;5047560;28;20181;-60
2023/07/07 01:11:56;;;;;;;9.40;5.18;;;;;;;12.42;100.00;94201.69;5047733;28;20585;-62
2023/07/07 01:14:27;;;;;;;9.00;5.23;;;;;;;12.37;100.00;94202.94;5047948;28;20508;-60
2023/07/07 01:17:18;;;;;;;8.57;5.40;;;;;;;12.38;100.00;94196.25;5047834;28;20061;-60
2023/07/07 01:20:23;;;;;;;9.77;5.30;;;;;;;12.37;100.00;94200.97;5047537;28;20047;-60
2023/07/07 01:23:07;;;;;;;9.02;5.30;;;;;;;12.31;100.00;94202.63;5047468;28;20378;-62
2023/07/07 01:25:37;;;;;;;8.68;4.90;;;;;;;12.31;100.00;94199.13;5047668;28;20529;-60
2023/07/07 01:28:14;;;;;;;8.47;5.03;;;;;;;12.32;100.00;94203.44;5047975;28;20037;-60
2023/07/07 01:30:48;;;;;;;10.73;5.38;;;;;;;12.26;100.00;94203.13;5029840;28;20053;-60
2023/07/07 01:33:18;;;;;;;8.73;5.22;;;;;;;12.25;100.00;94200.78;5043263;28;20043;-60
2023/07/07 01:35:44;;;;;;;8.25;4.93;;;;;;;12.21;100.00;94200.84;5042725;28;20076;-61
2023/07/07 01:38:42;;;;;;;8.00;5.00;;;;;;;12.17;100.00;94198.19;5045560;28;20505;-60
2023/07/07 01:41:14;;;;;;;9.63;4.80;;;;;;;12.12;100.00;94208.88;5037578;28;20398;-62
2023/07/07 01:44:10;;;;;;;8.73;4.97;;;;;;;12.11;100.00;94197.09;5047205;28;20053;-60
2023/07/07 01:46:46;;;;;;;9.50;5.03;;;;;;;12.09;100.00;94199.50;5046993;28;20040;-60
2023/07/07 01:49:28;;;;;;;8.88;5.30;;;;;;;12.05;100.00;94207.00;5047782;28;20610;-62
2023/07/07 01:52:05;;;;;;;8.05;5.10;;;;;;;11.98;100.00;94204.38;5047105;28;20044;-62
2023/07/07 01:54:36;;;;;;;10.03;5.47;;;;;;;11.86;100.00;94207.69;5047588;28;20075;-62
2023/07/07 01:57:04;;;;;;;11.20;6.65;;;;;;;11.70;100.00;94206.34;5044208;28;20401;-62
2023/07/07 01:59:32;;;;;;;10.38;6.00;;;;;;;11.70;100.00;94200.06;5038227;28;20051;-61
2023/07/07 02:02:00;;;;;;;9.10;5.25;;;;;;;11.73;100.00;94200.03;5046350;28;21760;-61
2023/07/07 02:04:27;;;;;;;9.38;5.53;;;;;;;11.75;100.00;94214.13;5031905;28;20045;-60
2023/07/07 02:06:54;;;;;;;9.37;5.30;;;;;;;11.73;100.00;94215.72;5034828;28;20052;-60
2023/07/07 02:09:21;;;;;;;9.23;5.32;;;;;;;11.67;100.00;94214.63;5047746;28;20052;-60
2023/07/07 02:11:47;;;;;;;9.30;5.68;;;;;;;11.63;100.00;94220.22;5047017;28;20151;-60
2023/07/07 02:14:14;;;;;;;11.80;5.80;;;;;;;11.58;100.00;94215.16;5026500;28;20056;-60
2023/07/07 02:16:41;;;;;;;9.68;5.57;;;;;;;11.49;100.00;94212.94;5046543;28;20041;-59
2023/07/07 02:19:07;;;;;;;9.53;5.33;;;;;;;11.46;100.00;94211.00;5047701;28;20045;-61
2023/07/07 02:21:34;;;;;;;10.07;5.68;;;;;;;11.49;100.00;94218.44;5050351;28;20065;-57
2023/07/07 02:24:01;;;;;;;9.75;5.88;;;;;;;11.52;100.00;94209.34;5051237;28;20045;-59
2023/07/07 02:26:28;;;;;;;9.57;5.60;;;;;;;11.53;100.00;94208.16;5050847;28;20041;-59
2023/07/07 02:28:55;;;;;;;8.73;5.38;;;;;;;11.49;100.00;94215.69;5050497;28;20047;-59
2023/07/07 02:31:24;;;;;;;10.57;5.67;;;;;;;11.41;100.00;94211.50;5051110;28;20500;-61
2023/07/07 02:33:52;;;;;;;9.35;5.70;;;;;;;11.30;100.00;94225.34;5033232;28;20083;-61
2023/07/07 02:36:19;;;;;;;9.85;5.85;;;;;;;11.29;100.00;94223.00;5029961;28;20038;-60
2023/07/07 02:38:46;;;;;;;10.23;6.30;;;;;;;11.31;100.00;94228.91;5049949;28;20394;-61
2023/07/07 02:41:13;;;;;;;10.20;5.80;;;;;;;11.32;100.00;94227.69;5050786;28;20447;-59
2023/07/07 02:43:40;;;;;;;9.93;5.90;;;;;;;11.30;100.00;94227.31;5049861;28;20400;-59
2023/07/07 02:46:07;;;;;;;11.02;5.53;;;;;;;11.31;100.00;94223.41;5050632;28;20359;-59
2023/07/07 02:48:34;;;;;;;9.65;5.93;;;;;;;11.29;100.00;94212.81;5028760;28;20064;-61
2023/07/07 02:51:04;;;;;;;10.35;5.70;;;;;;;11.30;100.00;94216.34;5044255;28;20045;-59
2023/07/07 02:53:35;;;;;;;12.43;5.50;;;;;;;11.23;100.00;94213.66;5029580;28;20045;-59
2023/07/07 02:56:02;;;;;;;11.60;6.53;;;;;;;11.21;100.00;94222.34;5044193;28;20296;-60
2023/07/07 02:58:29;;;;;;;13.05;7.53;;;;;;;11.23;100.00;94224.66;5050280;28;20037;-60
2023/07/07 03:01:11;;;;;;;10.35;6.20;;;;;;;11.22;100.00;94220.38;5050040;28;20044;-61
2023/07/07 03:03:43;;;;;;;10.82;6.03;;;;;;;11.12;100.00;94217.34;5050041;28;20101;-59
2023/07/07 03:06:15;;;;;;;10.07;6.10;;;;;;;11.07;100.00;94215.06;5050345;28;20045;-61
2023/07/07 03:08:43;;;;;;;9.77;5.50;;;;;;;11.09;100.00;94225.63;5049877;28;20049;-61
2023/07/07 03:11:12;;;;;;;10.93;6.03;;;;;;;11.05;100.00;94217.44;5049994;28;20039;-60
2023/07/07 03:13:40;;;;;;;11.50;6.20;;;;;;;11.02;100.00;94215.50;5049703;28;20590;-61
2023/07/07 03:16:13;;;;;;;11.07;5.80;;;;;;;10.91;100.00;94226.63;5050199;28;20096;-60
2023/07/07 03:18:41;;;;;;;9.10;5.40;;;;;;;10.91;100.00;94221.13;5049466;28;20118;-62
2023/07/07 03:21:08;;;;;;;10.00;5.40;;;;;;;10.93;100.00;94217.97;5050210;28;20071;-59
2023/07/07 03:23:35;;;;;;;9.90;5.72;;;;;;;10.95;100.00;94223.84;5049549;28;20033;-59
2023/07/07 03:26:10;;;;;;;11.10;5.60;;;;;;;10.94;100.00;94222.28;5050082;28;20397;-59
2023/07/07 03:28:37;;;;;;;10.57;5.72;;;;;;;10.91;100.00;94226.63;5049200;28;20518;-60
2023/07/07 03:31:29;;;;;;;10.10;5.85;;;;;;;10.78;100.00;94223.63;5037093;28;20422;-60
2023/07/07 03:33:59;;;;;;;9.70;5.90;;;;;;;10.73;100.00;94224.06;5030930;28;20394;-59
2023/07/07 03:36:31;;;;;;;9.85;5.72;;;;;;;10.79;100.00;94227.16;5037426;28;20034;-59
2023/07/07 03:38:58;;;;;;;10.30;6.18;;;;;;;10.83;100.00;94229.88;5049335;28;20436;-60
2023/07/07 03:41:27;;;;;;;11.25;5.95;;;;;;;10.87;100.00;94228.63;5049555;28;20053;-60
2023/07/07 03:43:55;;;;;;;11.07;6.07;;;;;;;10.86;100.00;94226.28;5049374;28;20053;-59
2023/07/07 03:46:24;;;;;;;10.10;5.87;;;;;;;10.86;100.00;94229.81;5049405;28;20070;-60
2023/07/07 03:48:53;;;;;;;9.55;5.88;;;;;;;10.79;100.00;94230.66;5048980;28;20055;-60
2023/07/07 03:51:22;;;;;;;10.50;6.22;;;;;;;10.68;100.00;94231.97;5049490;28;20045;-60
2023/07/07 03:53:50;;;;;;;11.07;6.05;;;;;;;10.75;100.00;94232.69;5048891;28;20051;-61
2023/07/07 03:56:18;;;;;;;14.95;5.95;;;;;;;10.77;100.00;94229.53;5049232;28;20056;-60
2023/07/07 03:58:45;;;;;;;11.00;5.67;;;;;;;10.77;100.00;94241.28;5043548;28;20041;-61
2023/07/07 04:01:13;;;;;;;11.00;5.65;;;;;;;10.85;100.00;94242.00;5041757;28;20060;-59
2023/07/07 04:03:42;;;;;;;10.07;5.90;;;;;;;10.89;100.00;94236.47;5048787;28;20041;-59
2023/07/07 04:06:15;;;;;;;10.27;6.25;;;;;;;10.84;100.00;94243.16;5049412;28;20056;-60
2023/07/07 04:08:42;;;;;;;10.57;6.25;;;;;;;10.83;100.00;94247.13;5048326;28;20151;-60
2023/07/07 04:11:18;;;;;;;11.70;6.10;;;;;;;10.95;100.00;94243.06;5049317;28;20045;-59
2023/07/07 04:13:46;;;;;;;12.15;7.72;;;;;;;11.00;100.00;94243.38;5048618;28;20407;-60
2023/07/07 04:16:20;;;;;;;12.15;6.90;;;;;;;11.03;100.00;94241.78;5049127;28;20504;-59
2023/07/07 04:18:48;;;;;;;10.23;6.32;;;;;;;11.15;100.00;94235.75;5035083;28;20106;-60
2023/07/07 04:21:18;;;;;;;12.68;6.57;;;;;;;11.29;100.00;94242.25;5048752;28;20127;-61
2023/07/07 04:23:47;;;;;;;11.40;6.30;;;;;;;11.28;100.00;94246.97;5048172;28;20041;-60
2023/07/07 04:26:16;;;;;;;11.20;6.53;;;;;;;11.00;100.00;94248.84;5048759;28;20048;-59
2023/07/07 04:28:42;;;;;;;10.93;6.22;;;;;;;10.94;100.00;94246.97;5048207;28;20047;-59
2023/07/07 04:31:11;;;;;;;9.88;6.30;;;;;;;11.20;100.00;94248.25;5048640;28;20041;-59
2023/07/07 04:33:39;;;;;;;11.23;6.63;;;;;;;11.35;100.00;94246.13;5039003;28;20056;-59
2023/07/07 04:36:08;;;;;;;13.73;7.00;;;;;;;11.63;100.00;94252.41;5028517;28;20055;-61
2023/07/07 04:38:35;;;;;;;12.57;6.95;;;;;;;11.82;100.00;94243.50;5044045;28;20462;-60
2023/07/07 04:41:14;;;;;;;14.15;7.05;;;;;;;11.64;100.00;94248.47;5048338;28;20126;-60
2023/07/07 04:43:46;;;;;;;11.95;6.57;;;;;;;11.65;100.00;94247.25;5046843;28;20060;-60
2023/07/07 04:46:15;;;;;;;12.35;6.85;;;;;;;11.57;100.00;94249.34;5048356;28;20113;-62
2023/07/07 04:48:43;;;;;;;12.67;7.07;;;;;;;11.69;100.00;94245.25;5047742;28;20037;-60
2023/07/07 04:51:11;;;;;;;11.60;6.57;;;;;;;11.66;100.00;94243.34;5048310;28;20049;-61
2023/07/07 04:53:40;;;;;;;11.73;6.70;;;;;;;11.76;100.00;94245.16;5047975;28;20444;-60
2023/07/07 04:56:12;;;;;;;11.27;6.50;;;;;;;11.76;100.00;94250.66;5052928;28;20339;-59
2023/07/07 04:58:40;;;;;;;12.82;7.22;;;;;;;11.83;100.00;94249.75;5059150;28;20055;-60
2023/07/07 05:01:15;;;;;;;12.67;6.87;;;;;;;12.10;100.00;94247.81;5042384;28;20056;-59
2023/07/07 05:03:44;;;;;;;11.70;6.90;;;;;;;12.15;100.00;94241.84;5043029;28;20057;-60
2023/07/07 05:06:12;;;;;;;14.75;8.00;;;;;;;12.11;100.00;94251.31;5048440;28;20114;-59
2023/07/07 05:08:41;;;;;;;15.25;8.50;;;;;;;12.32;100.00;94252.97;5047447;28;20049;-60
2023/07/07 05:11:13;;;;;;;17.63;9.10;;;;;;;12.29;100.00;94260.06;5047737;28;20040;-59
2023/07/07 05:13:40;;;;;;;13.40;7.30;;;;;;;12.20;100.00;94257.09;5047402;28;20048;-61
2023/07/07 05:16:12;;;;;;;12.90;6.93;;;;;;;12.26;100.00;94252.66;5047676;28;20434;-60
2023/07/07 05:18:40;;;;;;;12.63;7.07;;;;;;;12.27;100.00;94254.19;5047638;28;20044;-59
2023/07/07 05:21:08;;;;;;;13.90;7.40;;;;;;;12.76;100.00;94259.28;5047685;28;20090;-60
2023/07/07 05:23:36;;;;;;;11.55;6.78;;;;;;;13.28;100.00;94260.66;5026520;28;20297;-61
2023/07/07 05:26:04;;;;;;;10.30;6.70;;;;;;;15.22;100.00;94258.91;5043442;28;20041;-60
2023/07/07 05:28:31;;;;;;;11.55;7.32;;;;;;;17.83;100.00;94249.69;5047988;28;20112;-62
2023/07/07 05:30:58;;;;;;;11.40;6.97;;;;;;;19.75;88.17;94255.28;5047215;28;20051;-62
2023/07/07 05:33:27;;;;;;;10.85;6.82;;;;;;;20.55;81.66;94256.72;5048003;28;20051;-62
2023/07/07 05:35:58;;;;;;;11.55;7.03;;;;;;;20.78;77.76;94257.22;5047322;28;20127;-62
2023/07/07 05:38:26;;;;;;;12.47;6.97;;;;;;;22.00;72.67;94261.41;5035215;28;20139;-61
2023/07/07 05:40:53;;;;;;;11.38;6.57;;;;;;;21.85;71.68;94264.97;5046973;28;20052;-61
2023/07/07 05:43:21;;;;;;;11.68;7.22;;;;;;;22.09;67.94;94259.28;5047897;28;20390;-61
2023/07/07 05:45:54;;;;;;;10.95;6.70;;;;;;;22.56;66.79;94256.72;5047373;28;20049;-61
2023/07/07 05:48:21;;;;;;;9.65;6.53;;;;;;;23.66;61.68;94257.13;5047474;28;20040;-61
2023/07/07 05:50:49;;;;;;;8.27;6.00;;;;;;;24.58;57.55;94257.47;5026298;28;20049;-61
2023/07/07 05:53:16;;;;;;;13.60;6.60;;;;;;;24.88;55.07;94254.34;5040582;28;20049;-61
2023/07/07 05:55:46;;;;;;;12.55;6.10;;;;;;;24.99;54.58;94257.22;5049234;28;20033;-63
2023/07/07 05:58:16;;;;;;;10.32;6.30;;;;;;;25.89;50.19;94260.38;5062585;28;20070;-61
2023/07/07 06:00:44;;;;;;;8.85;6.00;;;;;;;27.30;47.31;94251.13;5050940;28;20045;-61
2023/07/07 06:03:11;;;;;;;9.53;6.00;;;;;;;28.16;42.96;94253.03;5038597;28;20045;-61
2023/07/07 06:05:38;;;;;;;9.93;6.50;;;;;;;27.92;42.48;94258.56;5030873;28;20586;-62
2023/07/07 06:08:05;;;;;;;8.90;6.70;;;;;;;27.53;43.18;94253.88;5045028;28;20042;-61
2023/07/07 06:10:32;;;;;;;10.55;7.20;;;;;;;25.51;46.90;94259.78;5033104;28;20041;-64
2023/07/07 06:13:01;;;;;;;10.73;7.53;;;;;;;26.84;45.50;94253.31;5042104;28;20049;-62
2023/07/07 06:15:27;;;;;;;17.03;10.97;;;;;;;27.85;42.78;94246.53;5031411;28;20061;-62
2023/07/07 06:17:54;;;;;;;16.38;10.90;;;;;;;26.64;44.42;94247.94;5040579;28;20064;-60
2023/07/07 06:20:21;;;;;;;15.77;10.82;;;;;;;26.90;45.59;94251.25;5051237;28;20044;-61
2023/07/07 06:22:48;;;;;;;14.27;9.65;;;;;;;28.13;41.96;94248.44;5050393;28;20067;-62
2023/07/07 06:25:15;;;;;;;12.20;8.00;;;;;;;27.28;44.55;94253.72;5052578;28;20055;-62
2023/07/07 06:27:42;;;;;;;8.83;6.47;;;;;;;27.80;42.85;94250.13;5049991;28;20045;-61
2023/07/07 06:30:10;;;;;;;8.90;6.28;;;;;;;27.36;44.07;94256.75;5050706;28;20037;-63
2023/07/07 06:32:37;;;;;;;7.88;6.22;;;;;;;29.56;39.53;94258.69;5050766;28;20048;-61
2023/07/07 06:35:04;;;;;;;9.27;6.03;;;;;;;31.67;35.33;94261.22;5050759;28;20045;-61
2023/07/07 06:37:31;;;;;;;8.23;5.80;;;;;;;31.50;36.64;94255.91;5051415;28;20033;-62
2023/07/07 06:39:58;;;;;;;9.10;6.07;;;;;;;31.36;35.03;94265.69;5037088;28;20631;-64
2023/07/07 06:42:24;;;;;;;9.00;5.88;;;;;;;30.90;36.32;94268.59;5051378;28;20063;-62
2023/07/07 06:44:51;;;;;;;10.07;5.82;;;;;;;29.26;37.89;94278.56;5050437;28;20055;-62
2023/07/07 06:47:18;;;;;;;7.47;5.30;;;;;;;30.82;36.83;94273.34;5050909;28;20043;-62
2023/07/07 06:49:45;;;;;;;9.38;5.32;;;;;;;30.36;36.23;94269.72;5050261;28;20049;-62
2023/07/07 06:52:12;;;;;;;8.70;5.00;;;;;;;31.31;35.92;94264.50;5051533;28;20106;-65
2023/07/07 06:54:38;;;;;;;8.88;5.30;;;;;;;32.87;32.73;94265.78;5050528;28;20048;-62
2023/07/07 06:57:06;;;;;;;8.23;5.32;;;;;;;33.15;32.19;94267.94;5051270;28;20052;-62
2023/07/07 06:59:34;;;;;;;8.10;5.00;;;;;;;33.10;32.52;94263.13;5032992;28;20053;-63
2023/07/07 07:02:00;;;;;;;8.70;5.20;;;;;;;33.78;31.00;94267.75;5030299;28;20714;-65
2023/07/07 07:04:28;;;;;;;9.50;5.97;;;;;;;33.14;33.18;94257.88;5030573;28;20401;-62
2023/07/07 07:06:54;;;;;;;8.63;6.00;;;;;;;34.32;31.03;94268.00;5041559;28;20040;-62
2023/07/07 07:09:21;;;;;;;11.32;7.82;;;;;;;34.14;30.70;94269.84;5050370;28;20041;-63
2023/07/07 07:11:48;;;;;;;11.20;7.30;;;;;;;35.09;29.84;94270.97;5028566;28;20053;-63
2023/07/07 07:14:15;;;;;;;9.88;6.30;;;;;;;36.84;27.15;94267.38;5050370;28;20041;-64
2023/07/07 07:16:42;;;;;;;9.13;5.50;;;;;;;37.36;26.25;94264.69;5050134;28;20053;-62
2023/07/07 07:19:09;;;;;;;6.65;4.80;;;;;;;38.24;25.11;94266.25;5050187;28;20140;-62
2023/07/07 07:21:35;;;;;;;6.53;4.30;;;;;;;38.72;24.25;94262.19;5049724;28;20052;-63
2023/07/07 07:24:02;;;;;;;8.00;4.55;;;;;;;36.99;25.58;94268.03;5050104;28;20049;-63
2023/07/07 07:26:29;;;;;;;6.68;4.30;;;;;;;33.79;27.06;94270.06;5050620;28;20049;-62
2023/07/07 07:28:56;;;;;;;6.73;4.00;;;;;;;35.56;26.28;94263.91;5049878;28;20048;-62
2023/07/07 07:31:23;;;;;;;6.47;4.10;;;;;;;35.24;26.39;94261.69;5050146;28;20037;-61
2023/07/07 07:33:53;;;;;;;6.28;4.00;;;;;;;37.71;23.54;94259.78;5049654;28;20044;-61
2023/07/07 07:36:21;;;;;;;6.10;3.90;;;;;;;36.84;25.27;94255.94;5050103;28;20070;-62
2023/07/07 07:38:47;;;;;;;5.78;3.83;;;;;;;37.78;22.62;94258.19;5049901;28;20041;-62
2023/07/07 07:41:14;;;;;;;5.70;3.90;;;;;;;38.89;22.40;94250.63;5049628;28;20045;-62
2023/07/07 07:43:41;;;;;;;6.35;4.00;;;;;;;35.70;24.90;94255.88;5049330;28;20194;-64
2023/07/07 07:46:08;;;;;;;6.28;3.97;;;;;;;35.52;25.63;94254.97;5030383;28;20050;-62
2023/07/07 07:48:34;;;;;;;4.93;3.65;;;;;;;34.54;25.53;94252.28;5049418;28;20098;-63
2023/07/07 07:51:01;;;;;;;5.63;3.67;;;;;;;34.79;25.09;94253.28;5029214;28;20540;-62
2023/07/07 07:53:28;;;;;;;5.10;3.53;;;;;;;36.29;24.81;94249.78;5050045;28;20037;-62
2023/07/07 07:55:55;;;;;;;5.90;4.00;;;;;;;32.42;27.12;94250.59;5049238;28;20044;-62
2023/07/07 07:58:21;;;;;;;5.47;3.70;;;;;;;31.78;28.43;94246.06;5031983;28;20434;-63
2023/07/07 08:00:48;;;;;;;5.75;3.70;;;;;;;32.99;28.16;94238.59;5049028;28;20486;-61
2023/07/07 08:03:15;;;;;;;5.70;3.97;;;;;;;31.99;28.82;94249.69;5036066;28;20421;-61
2023/07/07 08:05:44;;;;;;;5.73;4.10;;;;;;;32.76;27.93;94246.91;5034913;28;20391;-65
2023/07/07 08:08:11;;;;;;;5.70;3.58;;;;;;;31.31;29.87;94249.53;5049717;28;20367;-62
2023/07/07 08:10:39;;;;;;;6.13;3.80;;;;;;;30.71;30.97;94257.31;5048510;28;20048;-62
2023/07/07 08:13:06;;;;;;;5.90;4.32;;;;;;;30.49;31.11;94249.19;5049049;28;20481;-62
2023/07/07 08:15:33;;;;;;;6.20;4.00;;;;;;;28.79;32.74;94256.91;5049412;28;20049;-63
2023/07/07 08:18:00;;;;;;;6.67;4.23;;;;;;;30.13;31.73;94258.69;5020682;28;20398;-62
2023/07/07 08:20:27;;;;;;;7.32;4.15;;;;;;;30.53;31.24;94258.91;5049109;28;20098;-64
2023/07/07 08:22:54;;;;;;;7.28;4.20;;;;;;;28.88;32.52;94258.63;5049093;28;20098;-63
2023/07/07 08:25:21;;;;;;;6.03;4.15;;;;;;;29.20;32.06;94263.72;5028912;28;20394;-61
2023/07/07 08:27:47;;;;;;;6.95;3.90;;;;;;;29.12;31.88;94266.38;5048595;28;20045;-61
2023/07/07 08:30:17;;;;;;;6.20;4.03;;;;;;;29.68;31.74;94277.03;5048909;28;20041;-62
2023/07/07 08:32:44;;;;;;;6.03;4.20;;;;;;;29.00;32.03;94279.81;5048857;28;20053;-63
2023/07/07 08:35:11;;;;;;;7.47;4.13;;;;;;;29.62;31.60;94278.38;5049235;28;20060;-62
2023/07/07 08:37:38;;;;;;;6.28;4.10;;;;;;;28.88;32.67;94279.16;5044764;28;20211;-62
2023/07/07 08:40:05;;;;;;;6.80;4.53;;;;;;;29.07;28.97;94282.03;5039642;28;20041;-62
2023/07/07 08:42:39;;;;;;;6.77;4.10;;;;;;;30.55;30.42;94276.09;5035870;28;20489;-61
2023/07/07 08:45:19;;;;;;;6.38;4.20;;;;;;;28.58;33.84;94270.69;5048199;28;20041;-63
2023/07/07 08:47:51;;;;;;;8.30;4.43;;;;;;;28.45;31.70;94276.94;5047843;28;20041;-61
2023/07/07 08:50:36;;;;;;;6.93;4.20;;;;;;;30.57;30.50;94265.00;5048971;28;20055;-62
2023/07/07 08:53:33;;;;;;;6.75;4.07;;;;;;;32.04;29.28;94254.53;5047906;28;20402;-61
2023/07/07 08:56:03;;;;;;;8.70;4.60;;;;;;;28.29;33.45;94261.66;5047857;28;20652;-63
2023/07/07 08:58:41;;;;;;;8.45;4.70;;;;;;;27.72;34.22;94254.03;5048955;28;20522;-63
2023/07/07 09:01:21;;;;;;;6.35;4.30;;;;;;;27.71;33.02;94258.91;5047765;28;20582;-63
2023/07/07 09:04:03;;;;;;;6.75;4.28;;;;;;;32.03;27.75;94263.59;5048314;28;20040;-65
2023/07/07 09:06:45;;;;;;;7.57;4.25;;;;;;;32.17;27.06;94258.63;5048781;28;20055;-62
2023/07/07 09:09:49;;;;;;;6.90;3.97;;;;;;;34.39;25.69;94250.94;5047947;28;20080;-64
2023/07/07 09:12:33;;;;;;;6.25;4.53;;;;;;;35.67;23.59;94249.25;5016537;28;20446;-61
2023/07/07 09:15:07;;;;;;;6.65;4.40;;;;;;;33.47;25.59;94252.59;5018510;28;20706;-61
2023/07/07 09:17:41;;;;;;;7.03;4.63;;;;;;;32.21;25.95;94256.22;5041232;28;20049;-61
2023/07/07 09:20:11;;;;;;;8.05;4.68;;;;;;;33.15;25.34;94257.31;5048804;28;20045;-61
2023/07/07 09:22:50;;;;;;;6.20;4.40;;;;;;;30.04;28.36;94265.53;5047929;28;20045;-62
2023/07/07 09:25:23;;;;;;;6.95;4.38;;;;;;;32.41;26.02;94261.16;5048720;28;20040;-62
2023/07/07 09:27:58;;;;;;;6.60;4.43;;;;;;;31.47;25.72;94270.41;5048101;28;20045;-62
2023/07/07 09:30:44;;;;;;;9.27;4.97;;;;;;;31.95;25.06;94257.78;5049927;28;20123;-64
2023/07/07 09:33:15;;;;;;;7.85;4.63;;;;;;;32.14;25.61;94263.34;5039105;28;20753;-62
2023/07/07 09:36:07;;;;;;;7.93;4.80;;;;;;;32.43;25.81;94258.53;5051988;28;20052;-61
2023/07/07 09:38:58;;;;;;;6.75;4.40;;;;;;;32.28;26.27;94257.59;5052258;28;20051;-61
2023/07/07 09:41:43;;;;;;;8.77;4.60;;;;;;;32.83;26.47;94251.91;5045375;28;20076;-62
2023/07/07 09:44:28;;;;;;;7.97;4.20;;;;;;;34.02;25.06;94255.16;5047810;28;20914;-61
2023/07/07 09:47:00;;;;;;;8.65;4.60;;;;;;;35.16;22.75;94253.88;5030552;28;20051;-60
2023/07/07 09:49:48;;;;;;;7.00;4.37;;;;;;;33.35;24.45;94254.97;5048683;28;20037;-61
2023/07/07 09:52:39;;;;;;;7.72;4.35;;;;;;;33.25;24.18;94259.66;5051259;28;20605;-62
2023/07/07 09:55:21;;;;;;;9.85;4.50;;;;;;;33.68;24.82;94258.22;5051368;28;20695;-65
2023/07/07 09:57:56;;;;;;;8.15;4.38;;;;;;;33.55;24.54;94259.09;5051386;28;20137;-62
2023/07/07 10:00:26;;;;;;;9.15;4.65;;;;;;;32.92;25.72;94265.66;5052442;28;20041;-63
2023/07/07 10:03:24;;;;;;;8.70;4.97;;;;;;;34.38;23.99;94262.88;5051274;28;21606;-65
2023/07/07 10:05:53;;;;;;;10.48;5.00;;;;;;;32.82;25.96;94258.91;5051337;28;20111;-62
2023/07/07 10:08:22;;;;;;;8.00;4.20;;;;;;;35.59;23.27;94251.34;5052018;28;20045;-62
2023/07/07 10:11:08;;;;;;;7.65;4.70;;;;;;;29.76;29.84;94260.25;5045709;28;20051;-62
2023/07/07 10:13:56;;;;;;;7.85;4.65;;;;;;;29.17;31.02;94261.94;5037832;28;20060;-62
2023/07/07 10:16:35;;;;;;;7.63;4.80;;;;;;;29.93;30.36;94250.78;5044480;28;20470;-62
2023/07/07 10:19:09;;;;;;;9.85;4.55;;;;;;;34.10;25.50;94252.34;5046693;28;20730;-62
2023/07/07 10:21:36;;;;;;;6.20;4.32;;;;;;;32.63;26.77;94247.75;5051307;28;20037;-60
2023/07/07 10:24:03;;;;;;;9.82;4.57;;;;;;;28.67;32.20;94247.78;5051877;28;20394;-61
2023/07/07 10:26:32;;;;;;;6.70;4.38;;;;;;;31.73;28.56;94247.69;5051464;28;20074;-62
2023/07/07 10:29:02;;;;;;;8.43;4.23;;;;;;;29.26;31.31;94253.13;5051295;28;20487;-61
2023/07/07 10:31:29;;;;;;;8.60;4.50;;;;;;;26.77;34.95;94251.00;5051479;28;20082;-63
2023/07/07 10:33:59;;;;;;;7.00;4.53;;;;;;;26.84;35.18;94247.66;5050921;28;20041;-61
2023/07/07 10:36:30;;;;;;;9.35;4.22;;;;;;;29.02;32.06;94257.44;5051288;28;20043;-60
2023/07/07 10:38:57;;;;;;;7.68;4.18;;;;;;;29.47;31.36;94256.97;5050512;28;20047;-61
2023/07/07 10:41:26;;;;;;;9.17;4.27;;;;;;;28.70;32.10;94259.31;5051280;28;20063;-61
2023/07/07 10:43:53;;;;;;;7.45;4.50;;;;;;;26.85;34.00;94256.88;5050644;28;20045;-61
2023/07/07 10:46:20;;;;;;;8.85;4.40;;;;;;;28.77;32.58;94245.34;5050828;28;20037;-60
2023/07/07 10:48:47;;;;;;;8.68;4.30;;;;;;;30.61;30.25;94239.19;5050711;28;20041;-61
2023/07/07 10:51:35;;;;;;;8.18;4.15;;;;;;;30.88;30.39;94254.19;5051203;28;20055;-60
2023/07/07 10:54:09;;;;;;;8.33;3.97;;;;;;;29.22;31.69;94244.94;5050002;28;20855;-62
2023/07/07 10:56:41;;;;;;;9.05;4.50;;;;;;;28.75;31.71;94253.59;5050849;28;20059;-60
2023/07/07 10:59:27;;;;;;;8.93;4.10;;;;;;;28.56;33.36;94264.81;5051058;28;20041;-60
2023/07/07 11:02:18;;;;;;;7.97;4.60;;;;;;;27.32;34.34;94253.44;5040166;28;20114;-60
2023/07/07 11:05:04;;;;;;;6.97;4.00;;;;;;;27.60;34.20;94242.81;5037777;28;20053;-61
2023/07/07 11:07:32;;;;;;;7.60;4.30;;;;;;;28.55;33.33;94245.56;5037456;28;20049;-64
2023/07/07 11:10:07;;;;;;;7.57;4.07;;;;;;;29.08;32.79;94243.28;5046808;28;20063;-61
2023/07/07 11:12:49;;;;;;;9.10;4.47;;;;;;;29.00;32.60;94242.34;5030423;28;20145;-63
2023/07/07 11:16:01;;;;;;;8.80;4.10;;;;;;;29.39;31.33;94239.06;5047043;28;20052;-63
2023/07/07 11:19:06;;;;;;;8.48;4.13;;;;;;;29.31;31.89;94237.38;5005503;28;20584;-62
2023/07/07 11:21:57;;;;;;;8.07;4.07;;;;;;;28.81;32.27;94234.53;5049400;28;21767;-62
2023/07/07 11:24:46;;;;;;;11.32;4.25;;;;;;;29.40;31.09;94232.13;5049718;28;20146;-62
2023/07/07 11:27:45;;;;;;;8.80;4.10;;;;;;;29.45;30.69;94236.19;5049809;28;20379;-62
2023/07/07 11:30:38;;;;;;;6.03;3.60;;;;;;;29.67;31.54;94230.22;5049697;28;20114;-63
2023/07/07 11:33:37;;;;;;;10.02;3.90;;;;;;;29.28;30.72;94228.69;5034539;28;20701;-61
2023/07/07 11:36:11;;;;;;;9.63;4.03;;;;;;;29.88;30.50;94229.72;5049528;28;20414;-62
2023/07/07 11:39:01;;;;;;;7.93;4.00;;;;;;;30.05;29.76;94218.94;5049582;28;20053;-63
2023/07/07 11:41:54;;;;;;;7.53;3.80;;;;;;;30.10;29.20;94219.38;5050153;28;20102;-61
2023/07/07 11:44:48;;;;;;;8.63;4.10;;;;;;;30.16;29.34;94212.31;5049063;28;20044;-61
2023/07/07 11:47:30;;;;;;;7.65;4.10;;;;;;;30.03;30.46;94215.88;5048962;28;20641;-62
2023/07/07 11:50:51;;;;;;;7.53;3.90;;;;;;;28.61;30.35;94215.22;5049750;28;20064;-61